sensor_id;sensor_type;location;lat;lon;timestamp;pressure;altitude;pressure_sealevel;temperature;humidity
55466;BME280;41329;41.594;23.810;2024-03-02T00:00:22;94714.13;;;10.32;79.58
55466;BME280;41329;41.594;23.810;2024-03-02T00:02:49;94703.44;;;10.23;79.73
55466;BME280;41329;41.594;23.810;2024-03-02T00:05:20;94690.00;;;10.25;79.49
55466;BME280;41329;41.594;23.810;2024-03-02T00:07:51;94704.63;;;10.26;79.57
55466;BME280;41329;41.594;23.810;2024-03-02T00:10:20;94717.34;;;10.37;79.36
55466;BME280;41329;41.594;23.810;2024-03-02T00:12:48;94708.66;;;10.39;79.48
55466;BME280;41329;41.594;23.810;2024-03-02T00:17:54;94717.34;;;10.37;79.30
55466;BME280;41329;41.594;23.810;2024-03-02T00:20:22;94710.19;;;10.33;79.32
55466;BME280;41329;41.594;23.810;2024-03-02T00:22:48;94709.75;;;10.24;79.72
55466;BME280;41329;41.594;23.810;2024-03-02T00:25:14;94702.63;;;10.19;79.64
55466;BME280;41329;41.594;23.810;2024-03-02T00:27:39;94714.50;;;10.27;79.76
55466;BME280;41329;41.594;23.810;2024-03-02T00:32:56;94703.06;;;10.28;79.81
55466;BME280;41329;41.594;23.810;2024-03-02T00:35:23;94706.66;;;10.32;79.72
55466;BME280;41329;41.594;23.810;2024-03-02T00:37:48;94695.59;;;10.36;79.57
55466;BME280;41329;41.594;23.810;2024-03-02T00:40:14;94693.22;;;10.34;79.50
55466;BME280;41329;41.594;23.810;2024-03-02T00:42:40;94690.50;;;10.38;79.52
55466;BME280;41329;41.594;23.810;2024-03-02T00:45:07;94686.13;;;10.37;79.19
55466;BME280;41329;41.594;23.810;2024-03-02T00:47:38;94681.03;;;10.42;79.29
55466;BME280;41329;41.594;23.810;2024-03-02T00:50:05;94663.59;;;10.31;79.21
55466;BME280;41329;41.594;23.810;2024-03-02T00:52:31;94678.69;;;10.44;79.22
55466;BME280;41329;41.594;23.810;2024-03-02T00:54:58;94672.72;;;10.42;79.27
55466;BME280;41329;41.594;23.810;2024-03-02T00:57:24;94678.69;;;10.48;79.18
55466;BME280;41329;41.594;23.810;2024-03-02T00:59:51;94668.78;;;10.43;79.24
55466;BME280;41329;41.594;23.810;2024-03-02T01:02:17;94668.03;;;10.50;79.09
55466;BME280;41329;41.594;23.810;2024-03-02T01:04:42;94669.59;;;10.44;79.06
55466;BME280;41329;41.594;23.810;2024-03-02T01:07:07;94662.09;;;10.44;79.17
55466;BME280;41329;41.594;23.810;2024-03-02T01:09:33;94661.72;;;10.49;79.18
55466;BME280;41329;41.594;23.810;2024-03-02T01:11:58;94666.06;;;10.50;79.30
55466;BME280;41329;41.594;23.810;2024-03-02T01:14:24;94659.72;;;10.50;79.28
55466;BME280;41329;41.594;23.810;2024-03-02T01:16:49;94654.63;;;10.52;79.11
55466;BME280;41329;41.594;23.810;2024-03-02T01:19:14;94650.28;;;10.51;79.24
55466;BME280;41329;41.594;23.810;2024-03-02T01:21:40;94643.50;;;10.38;79.03
55466;BME280;41329;41.594;23.810;2024-03-02T01:24:06;94658.53;;;10.47;79.13
55466;BME280;41329;41.594;23.810;2024-03-02T01:26:31;94645.50;;;10.44;79.09
55466;BME280;41329;41.594;23.810;2024-03-02T01:28:56;94652.22;;;10.47;79.26
55466;BME280;41329;41.594;23.810;2024-03-02T01:31:22;94650.66;;;10.46;79.17
55466;BME280;41329;41.594;23.810;2024-03-02T01:33:47;94631.56;;;10.30;79.13
55466;BME280;41329;41.594;23.810;2024-03-02T01:36:13;94641.13;;;10.43;79.23
55466;BME280;41329;41.594;23.810;2024-03-02T01:38:38;94638.78;;;10.42;79.27
55466;BME280;41329;41.594;23.810;2024-03-02T01:41:04;94637.97;;;10.45;79.28
55466;BME280;41329;41.594;23.810;2024-03-02T01:43:29;94642.75;;;10.48;79.30
55466;BME280;41329;41.594;23.810;2024-03-02T01:45:54;94639.16;;;10.40;79.22
55466;BME280;41329;41.594;23.810;2024-03-02T01:48:21;94639.94;;;10.41;79.36
55466;BME280;41329;41.594;23.810;2024-03-02T01:50:47;94643.88;;;10.43;79.36
55466;BME280;41329;41.594;23.810;2024-03-02T01:53:12;94636.41;;;10.44;79.16
55466;BME280;41329;41.594;23.810;2024-03-02T01:55:37;94639.97;;;10.44;79.38
55466;BME280;41329;41.594;23.810;2024-03-02T01:58:03;94618.16;;;10.32;79.33
55466;BME280;41329;41.594;23.810;2024-03-02T02:00:28;94634.44;;;10.44;79.41
55466;BME280;41329;41.594;23.810;2024-03-02T02:02:55;94636.00;;;10.45;79.29
55466;BME280;41329;41.594;23.810;2024-03-02T02:05:21;94627.28;;;10.36;79.31
55466;BME280;41329;41.594;23.810;2024-03-02T02:07:46;94630.44;;;10.35;79.39
55466;BME280;41329;41.594;23.810;2024-03-02T02:10:12;94633.19;;;10.31;79.62
55466;BME280;41329;41.594;23.810;2024-03-02T02:12:38;94634.00;;;10.35;79.56
55466;BME280;41329;41.594;23.810;2024-03-02T02:15:04;94643.50;;;10.38;79.58
55466;BME280;41329;41.594;23.810;2024-03-02T02:17:46;94639.91;;;10.37;79.63
55466;BME280;41329;41.594;23.810;2024-03-02T02:20:11;94629.25;;;10.39;79.92
55466;BME280;41329;41.594;23.810;2024-03-02T02:22:37;94609.44;;;10.27;79.87
55466;BME280;41329;41.594;23.810;2024-03-02T02:25:02;94606.31;;;10.28;79.77
55466;BME280;41329;41.594;23.810;2024-03-02T02:27:27;94606.69;;;10.27;79.77
55466;BME280;41329;41.594;23.810;2024-03-02T02:29:53;94630.81;;;10.37;80.09
55466;BME280;41329;41.594;23.810;2024-03-02T02:32:18;94635.53;;;10.29;80.34
55466;BME280;41329;41.594;23.810;2024-03-02T02:34:43;94633.94;;;10.28;80.33
55466;BME280;41329;41.594;23.810;2024-03-02T02:37:09;94632.75;;;10.29;80.30
55466;BME280;41329;41.594;23.810;2024-03-02T02:39:34;94628.81;;;10.27;80.25
55466;BME280;41329;41.594;23.810;2024-03-02T02:42:00;94635.53;;;10.33;80.69
55466;BME280;41329;41.594;23.810;2024-03-02T02:44:26;94629.63;;;10.34;80.45
55466;BME280;41329;41.594;23.810;2024-03-02T02:46:51;94632.00;;;10.36;80.31
55466;BME280;41329;41.594;23.810;2024-03-02T02:49:17;94627.66;;;10.31;80.31
55466;BME280;41329;41.594;23.810;2024-03-02T02:51:42;94639.91;;;10.37;80.19
55466;BME280;41329;41.594;23.810;2024-03-02T02:54:07;94628.47;;;10.35;80.19
55466;BME280;41329;41.594;23.810;2024-03-02T02:56:33;94615.78;;;10.27;80.29
55466;BME280;41329;41.594;23.810;2024-03-02T02:58:58;94631.63;;;10.34;80.12
55466;BME280;41329;41.594;23.810;2024-03-02T03:01:24;94634.00;;;10.39;80.18
55466;BME280;41329;41.594;23.810;2024-03-02T03:03:49;94633.63;;;10.40;80.08
55466;BME280;41329;41.594;23.810;2024-03-02T03:06:14;94638.34;;;10.40;79.96
55466;BME280;41329;41.594;23.810;2024-03-02T03:08:40;94626.84;;;10.34;80.02
55466;BME280;41329;41.594;23.810;2024-03-02T03:11:05;94639.53;;;10.42;80.04
55466;BME280;41329;41.594;23.810;2024-03-02T03:13:32;94644.69;;;10.44;80.30
55466;BME280;41329;41.594;23.810;2024-03-02T03:15:57;94635.97;;;10.35;80.12
55466;BME280;41329;41.594;23.810;2024-03-02T03:18:22;94644.69;;;10.40;80.40
55466;BME280;41329;41.594;23.810;2024-03-02T03:20:48;94588.78;;;10.07;80.27
55466;BME280;41329;41.594;23.810;2024-03-02T03:23:13;94637.97;;;10.41;80.39
55466;BME280;41329;41.594;23.810;2024-03-02T03:25:42;94634.00;;;10.42;80.12
55466;BME280;41329;41.594;23.810;2024-03-02T03:28:08;94629.25;;;10.39;80.28
55466;BME280;41329;41.594;23.810;2024-03-02T03:30:37;94622.19;;;10.42;80.39
55466;BME280;41329;41.594;23.810;2024-03-02T03:33:03;94609.88;;;10.32;80.27
55466;BME280;41329;41.594;23.810;2024-03-02T03:35:28;94617.78;;;10.37;80.19
55466;BME280;41329;41.594;23.810;2024-03-02T03:37:53;94605.50;;;10.24;80.44
55466;BME280;41329;41.594;23.810;2024-03-02T03:40:19;94626.91;;;10.41;80.38
55466;BME280;41329;41.594;23.810;2024-03-02T03:42:44;94628.88;;;10.41;80.39
55466;BME280;41329;41.594;23.810;2024-03-02T03:45:10;94628.47;;;10.42;80.48
55466;BME280;41329;41.594;23.810;2024-03-02T03:47:35;94631.66;;;10.44;80.41
55466;BME280;41329;41.594;23.810;2024-03-02T03:50:01;94626.13;;;10.44;80.48
55466;BME280;41329;41.594;23.810;2024-03-02T03:52:29;94628.91;;;10.44;80.32
55466;BME280;41329;41.594;23.810;2024-03-02T03:54:55;94626.13;;;10.44;80.27
55466;BME280;41329;41.594;23.810;2024-03-02T03:57:20;94606.34;;;10.35;80.22
55466;BME280;41329;41.594;23.810;2024-03-02T03:59:46;94602.78;;;10.38;80.49
55466;BME280;41329;41.594;23.810;2024-03-02T04:02:11;94562.41;;;10.13;80.52
55466;BME280;41329;41.594;23.810;2024-03-02T04:04:38;94624.97;;;10.49;80.23
55466;BME280;41329;41.594;23.810;2024-03-02T04:07:03;94605.16;;;10.40;79.99
55466;BME280;41329;41.594;23.810;2024-03-02T04:09:29;94624.56;;;10.50;80.49
55466;BME280;41329;41.594;23.810;2024-03-02T04:11:54;94617.03;;;10.47;80.47
55466;BME280;41329;41.594;23.810;2024-03-02T04:14:20;94608.34;;;10.42;80.51
55466;BME280;41329;41.594;23.810;2024-03-02T04:16:45;94624.56;;;10.50;80.59
55466;BME280;41329;41.594;23.810;2024-03-02T04:19:10;94626.56;;;10.53;80.55
55466;BME280;41329;41.594;23.810;2024-03-02T04:21:36;94624.19;;;10.55;80.46
55466;BME280;41329;41.594;23.810;2024-03-02T04:24:02;94626.19;;;10.55;80.63
55466;BME280;41329;41.594;23.810;2024-03-02T04:26:28;94623.38;;;10.51;80.47
55466;BME280;41329;41.594;23.810;2024-03-02T04:28:54;94623.72;;;10.36;80.55
55466;BME280;41329;41.594;23.810;2024-03-02T04:31:19;94621.69;;;10.26;80.79
55466;BME280;41329;41.594;23.810;2024-03-02T04:33:45;94628.41;;;10.25;81.08
55466;BME280;41329;41.594;23.810;2024-03-02T04:36:10;94630.00;;;10.29;81.06
55466;BME280;41329;41.594;23.810;2024-03-02T04:38:36;94623.28;;;10.27;81.11
55466;BME280;41329;41.594;23.810;2024-03-02T04:41:03;94612.59;;;10.22;81.05
55466;BME280;41329;41.594;23.810;2024-03-02T04:43:29;94635.56;;;10.36;81.09
55466;BME280;41329;41.594;23.810;2024-03-02T04:45:54;94630.81;;;10.37;81.11
55466;BME280;41329;41.594;23.810;2024-03-02T04:48:19;94634.00;;;10.39;80.90
55466;BME280;41329;41.594;23.810;2024-03-02T04:50:47;94634.00;;;10.39;80.91
55466;BME280;41329;41.594;23.810;2024-03-02T04:53:12;94632.00;;;10.39;80.50
55466;BME280;41329;41.594;23.810;2024-03-02T04:55:37;94635.19;;;10.38;80.90
55466;BME280;41329;41.594;23.810;2024-03-02T04:58:06;94635.59;;;10.40;80.93
55466;BME280;41329;41.594;23.810;2024-03-02T05:00:32;94644.31;;;10.42;80.97
55466;BME280;41329;41.594;23.810;2024-03-02T05:02:58;94637.53;;;10.39;80.81
55466;BME280;41329;41.594;23.810;2024-03-02T05:05:23;94629.63;;;10.34;80.69
55466;BME280;41329;41.594;23.810;2024-03-02T05:07:48;94622.88;;;10.28;80.57
55466;BME280;41329;41.594;23.810;2024-03-02T05:10:14;94638.72;;;10.35;80.52
55466;BME280;41329;41.594;23.810;2024-03-02T05:12:39;94623.66;;;10.22;80.18
55466;BME280;41329;41.594;23.810;2024-03-02T05:15:08;94641.88;;;10.33;80.23
55466;BME280;41329;41.594;23.810;2024-03-02T05:17:38;94640.25;;;10.25;80.42
55466;BME280;41329;41.594;23.810;2024-03-02T05:20:05;94629.03;;;10.04;80.45
55466;BME280;41329;41.594;23.810;2024-03-02T05:22:30;94628.22;;;10.04;80.46
55466;BME280;41329;41.594;23.810;2024-03-02T05:24:56;94649.97;;;10.05;80.59
55466;BME280;41329;41.594;23.810;2024-03-02T05:27:21;94638.06;;;10.01;80.56
55466;BME280;41329;41.594;23.810;2024-03-02T05:29:47;94640.53;;;10.06;80.69
55466;BME280;41329;41.594;23.810;2024-03-02T05:32:13;94638.97;;;10.09;80.68
55466;BME280;41329;41.594;23.810;2024-03-02T05:34:38;94649.22;;;10.12;80.76
55466;BME280;41329;41.594;23.810;2024-03-02T05:37:04;94645.69;;;10.11;80.77
55466;BME280;41329;41.594;23.810;2024-03-02T05:39:29;94653.53;;;10.06;80.55
55466;BME280;41329;41.594;23.810;2024-03-02T05:41:54;94644.41;;;9.98;80.86
55466;BME280;41329;41.594;23.810;2024-03-02T05:44:20;94662.19;;;10.04;80.81
55466;BME280;41329;41.594;23.810;2024-03-02T05:46:45;94653.81;;;9.94;80.89
55466;BME280;41329;41.594;23.810;2024-03-02T05:49:11;94670.47;;;10.01;80.88
55466;BME280;41329;41.594;23.810;2024-03-02T05:51:36;94608.13;;;9.53;81.07
55466;BME280;41329;41.594;23.810;2024-03-02T05:54:02;94663.59;;;9.81;81.24
55466;BME280;41329;41.594;23.810;2024-03-02T05:56:28;94667.09;;;9.78;81.24
55466;BME280;41329;41.594;23.810;2024-03-02T05:58:53;94644.53;;;9.65;81.59
55466;BME280;41329;41.594;23.810;2024-03-02T06:01:46;94662.38;;;9.75;81.61
55466;BME280;41329;41.594;23.810;2024-03-02T06:04:12;94651.63;;;9.63;81.66
55466;BME280;41329;41.594;23.810;2024-03-02T06:06:38;94672.16;;;9.69;81.83
55466;BME280;41329;41.594;23.810;2024-03-02T06:09:04;94648.03;;;9.62;81.94
55466;BME280;41329;41.594;23.810;2024-03-02T06:11:39;94668.72;;;9.79;81.94
55466;BME280;41329;41.594;23.810;2024-03-02T06:14:08;94672.28;;;9.83;81.96
55466;BME280;41329;41.594;23.810;2024-03-02T06:16:34;94642.16;;;9.64;81.91
55466;BME280;41329;41.594;23.810;2024-03-02T06:19:00;94678.63;;;9.87;82.10
55466;BME280;41329;41.594;23.810;2024-03-02T06:21:26;94678.28;;;9.92;81.79
55466;BME280;41329;41.594;23.810;2024-03-02T06:23:52;94667.25;;;9.92;81.98
55466;BME280;41329;41.594;23.810;2024-03-02T06:26:18;94672.78;;;9.95;82.15
55466;BME280;41329;41.594;23.810;2024-03-02T06:28:44;94671.66;;;10.00;82.00
55466;BME280;41329;41.594;23.810;2024-03-02T06:31:10;94686.72;;;10.09;81.88
55466;BME280;41329;41.594;23.810;2024-03-02T06:33:36;94668.47;;;10.01;81.96
55466;BME280;41329;41.594;23.810;2024-03-02T06:36:01;94662.19;;;10.04;81.92
55466;BME280;41329;41.594;23.810;2024-03-02T06:38:27;94676.91;;;10.15;81.99
55466;BME280;41329;41.594;23.810;2024-03-02T06:40:52;94671.78;;;10.17;81.93
55466;BME280;41329;41.594;23.810;2024-03-02T06:43:18;94663.06;;;10.12;81.99
55466;BME280;41329;41.594;23.810;2024-03-02T06:45:44;94670.63;;;10.22;81.83
55466;BME280;41329;41.594;23.810;2024-03-02T06:48:09;94684.56;;;10.39;81.84
55466;BME280;41329;41.594;23.810;2024-03-02T06:50:34;94674.28;;;10.36;82.11
55466;BME280;41329;41.594;23.810;2024-03-02T06:53:00;94682.22;;;10.45;82.02
55466;BME280;41329;41.594;23.810;2024-03-02T06:55:25;94688.94;;;10.47;81.68
55466;BME280;41329;41.594;23.810;2024-03-02T06:57:51;94679.06;;;10.43;81.42
55466;BME280;41329;41.594;23.810;2024-03-02T07:00:17;94672.34;;;10.44;80.79
55466;BME280;41329;41.594;23.810;2024-03-02T07:02:46;94684.28;;;10.55;80.68
55466;BME280;41329;41.594;23.810;2024-03-02T07:05:11;94691.38;;;10.52;80.41
55466;BME280;41329;41.594;23.810;2024-03-02T07:07:37;94695.34;;;10.55;80.27
55466;BME280;41329;41.594;23.810;2024-03-02T07:10:04;94696.88;;;10.49;80.05
55466;BME280;41329;41.594;23.810;2024-03-02T07:12:29;94671.06;;;10.27;79.79
55466;BME280;41329;41.594;23.810;2024-03-02T07:14:56;94693.66;;;10.40;79.71
55466;BME280;41329;41.594;23.810;2024-03-02T07:17:31;94688.94;;;10.44;79.86
55466;BME280;41329;41.594;23.810;2024-03-02T07:19:57;94695.66;;;10.43;79.45
55466;BME280;41329;41.594;23.810;2024-03-02T07:22:22;94677.00;;;10.33;79.65
55466;BME280;41329;41.594;23.810;2024-03-02T07:24:48;94694.91;;;10.53;80.11
55466;BME280;41329;41.594;23.810;2024-03-02T07:27:15;94704.03;;;10.53;79.93
55466;BME280;41329;41.594;23.810;2024-03-02T07:29:41;94696.88;;;10.49;79.57
55466;BME280;41329;41.594;23.810;2024-03-02T07:32:07;94697.66;;;10.49;79.71
55466;BME280;41329;41.594;23.810;2024-03-02T07:34:33;94704.78;;;10.54;79.63
55466;BME280;41329;41.594;23.810;2024-03-02T07:36:58;94700.06;;;10.54;79.76
55466;BME280;41329;41.594;23.810;2024-03-02T07:39:24;94697.28;;;10.54;79.73
55466;BME280;41329;41.594;23.810;2024-03-02T07:41:50;94702.84;;;10.54;79.78
55466;BME280;41329;41.594;23.810;2024-03-02T07:44:16;94696.94;;;10.59;79.64
55466;BME280;41329;41.594;23.810;2024-03-02T07:46:42;94700.13;;;10.61;79.86
55466;BME280;41329;41.594;23.810;2024-03-02T07:49:08;94706.78;;;10.53;80.65
55466;BME280;41329;41.594;23.810;2024-03-02T07:51:33;94705.97;;;10.53;80.60
55466;BME280;41329;41.594;23.810;2024-03-02T07:53:58;94704.41;;;10.55;80.85
55466;BME280;41329;41.594;23.810;2024-03-02T07:56:24;94715.91;;;10.64;81.12
55466;BME280;41329;41.594;23.810;2024-03-02T07:58:50;94711.94;;;10.55;81.17
55466;BME280;41329;41.594;23.810;2024-03-02T08:01:15;94716.31;;;10.63;80.78
55466;BME280;41329;41.594;23.810;2024-03-02T08:03:40;94712.19;;;10.36;81.33
55466;BME280;41329;41.594;23.810;2024-03-02T08:06:06;94704.50;;;10.08;81.52
55466;BME280;41329;41.594;23.810;2024-03-02T08:08:32;94729.09;;;10.24;81.65
55466;BME280;41329;41.594;23.810;2024-03-02T08:10:57;94719.63;;;10.25;81.29
55466;BME280;41329;41.594;23.810;2024-03-02T08:13:23;94721.59;;;10.21;81.80
55466;BME280;41329;41.594;23.810;2024-03-02T08:15:48;94730.03;;;10.42;81.63
55466;BME280;41329;41.594;23.810;2024-03-02T08:18:14;94728.16;;;10.56;81.93
55466;BME280;41329;41.594;23.810;2024-03-02T08:20:40;94731.75;;;10.64;81.99
55466;BME280;41329;41.594;23.810;2024-03-02T08:23:06;94732.19;;;10.73;81.69
55466;BME280;41329;41.594;23.810;2024-03-02T08:25:32;94714.78;;;10.69;81.33
55466;BME280;41329;41.594;23.810;2024-03-02T08:27:58;94729.09;;;10.88;80.85
55466;BME280;41329;41.594;23.810;2024-03-02T08:30:23;94736.19;;;10.82;80.86
55466;BME280;41329;41.594;23.810;2024-03-02T08:32:48;94733.81;;;10.81;80.94
55466;BME280;41329;41.594;23.810;2024-03-02T08:35:14;94725.94;;;10.86;81.18
55466;BME280;41329;41.594;23.810;2024-03-02T08:37:41;94726.00;;;10.97;81.29
55466;BME280;41329;41.594;23.810;2024-03-02T08:40:09;94732.34;;;11.08;81.81
55466;BME280;41329;41.594;23.810;2024-03-02T08:42:35;94715.25;;;10.92;81.31
55466;BME280;41329;41.594;23.810;2024-03-02T08:45:01;94730.72;;;10.96;80.73
55466;BME280;41329;41.594;23.810;2024-03-02T08:47:27;94728.34;;;10.91;80.48
55466;BME280;41329;41.594;23.810;2024-03-02T08:49:52;94718.41;;;10.83;80.66
55466;BME280;41329;41.594;23.810;2024-03-02T08:52:18;94736.56;;;10.81;80.49
55466;BME280;41329;41.594;23.810;2024-03-02T08:54:43;94736.63;;;10.95;80.75
55466;BME280;41329;41.594;23.810;2024-03-02T08:57:09;94733.88;;;10.95;81.02
55466;BME280;41329;41.594;23.810;2024-03-02T08:59:34;94735.88;;;11.01;80.83
55466;BME280;41329;41.594;23.810;2024-03-02T09:02:00;94740.22;;;11.02;80.45
55466;BME280;41329;41.594;23.810;2024-03-02T09:04:25;94749.00;;;11.15;79.60
55466;BME280;41329;41.594;23.810;2024-03-02T09:06:50;94747.41;;;11.14;79.98
55466;BME280;41329;41.594;23.810;2024-03-02T09:09:16;94740.69;;;11.15;79.58
55466;BME280;41329;41.594;23.810;2024-03-02T09:11:41;94743.03;;;11.13;78.87
55466;BME280;41329;41.594;23.810;2024-03-02T09:14:07;94746.66;;;11.20;78.45
55466;BME280;41329;41.594;23.810;2024-03-02T09:16:32;94740.59;;;10.97;78.59
55466;BME280;41329;41.594;23.810;2024-03-02T09:18:58;94734.63;;;10.92;78.93
55466;BME280;41329;41.594;23.810;2024-03-02T09:21:23;94729.78;;;10.71;80.66
55466;BME280;41329;41.594;23.810;2024-03-02T09:23:50;94746.50;;;10.89;80.68
55466;BME280;41329;41.594;23.810;2024-03-02T09:26:16;94739.81;;;10.97;80.61
55466;BME280;41329;41.594;23.810;2024-03-02T09:28:44;94710.91;;;10.91;80.23
55466;BME280;41329;41.594;23.810;2024-03-02T09:31:10;94720.84;;;10.95;79.17
55466;BME280;41329;41.594;23.810;2024-03-02T09:33:35;94737.91;;;11.15;78.95
55466;BME280;41329;41.594;23.810;2024-03-02T09:36:00;94735.56;;;11.20;79.00
55466;BME280;41329;41.594;23.810;2024-03-02T09:38:26;94727.66;;;11.19;79.49
55466;BME280;41329;41.594;23.810;2024-03-02T09:40:51;94729.28;;;11.34;78.03
55466;BME280;41329;41.594;23.810;2024-03-02T09:43:17;94728.84;;;11.25;77.45
55466;BME280;41329;41.594;23.810;2024-03-02T09:45:42;94731.66;;;11.35;77.41
55466;BME280;41329;41.594;23.810;2024-03-02T09:48:09;94729.72;;;11.46;78.04
55466;BME280;41329;41.594;23.810;2024-03-02T09:50:34;94728.56;;;11.54;78.01
55466;BME280;41329;41.594;23.810;2024-03-02T09:52:59;94722.66;;;11.63;78.13
55466;BME280;41329;41.594;23.810;2024-03-02T09:55:25;94680.63;;;11.29;77.15
55466;BME280;41329;41.594;23.810;2024-03-02T09:57:50;94711.13;;;11.50;76.47
55466;BME280;41329;41.594;23.810;2024-03-02T10:00:17;94721.50;;;11.64;76.37
55466;BME280;41329;41.594;23.810;2024-03-02T10:02:42;94730.19;;;11.62;76.44
55466;BME280;41329;41.594;23.810;2024-03-02T10:05:11;94712.28;;;11.35;77.12
55466;BME280;41329;41.594;23.810;2024-03-02T10:07:37;94726.56;;;11.51;77.44
55466;BME280;41329;41.594;23.810;2024-03-02T10:10:15;94722.25;;;11.64;77.27
55466;BME280;41329;41.594;23.810;2024-03-02T10:12:41;94724.66;;;11.69;76.95
55466;BME280;41329;41.594;23.810;2024-03-02T10:15:06;94721.50;;;11.78;77.17
55466;BME280;41329;41.594;23.810;2024-03-02T10:17:32;94717.56;;;11.82;76.27
55466;BME280;41329;41.594;23.810;2024-03-02T10:19:58;94722.31;;;11.89;76.54
55466;BME280;41329;41.594;23.810;2024-03-02T10:22:23;94664.09;;;11.61;76.51
55466;BME280;41329;41.594;23.810;2024-03-02T10:24:49;94719.94;;;11.80;76.72
55466;BME280;41329;41.594;23.810;2024-03-02T10:27:25;94668.03;;;11.67;76.20
55466;BME280;41329;41.594;23.810;2024-03-02T10:29:51;94714.00;;;11.99;76.08
55466;BME280;41329;41.594;23.810;2024-03-02T10:32:17;94696.16;;;11.76;76.90
55466;BME280;41329;41.594;23.810;2024-03-02T10:34:44;94689.06;;;11.78;77.67
55466;BME280;41329;41.594;23.810;2024-03-02T10:37:11;94708.03;;;11.73;77.51
55466;BME280;41329;41.594;23.810;2024-03-02T10:39:37;94713.59;;;11.73;77.78
55466;BME280;41329;41.594;23.810;2024-03-02T10:42:07;94687.84;;;11.79;78.17
55466;BME280;41329;41.594;23.810;2024-03-02T10:44:33;94698.97;;;12.00;81.81
55466;BME280;41329;41.594;23.810;2024-03-02T10:47:03;94700.16;;;12.13;80.32
55466;BME280;41329;41.594;23.810;2024-03-02T10:49:30;94694.97;;;12.22;78.06
55466;BME280;41329;41.594;23.810;2024-03-02T10:51:57;94696.56;;;12.38;79.89
55466;BME280;41329;41.594;23.810;2024-03-02T10:54:23;94690.22;;;12.44;77.76
55466;BME280;41329;41.594;23.810;2024-03-02T10:56:53;94688.59;;;12.61;76.82
55466;BME280;41329;41.594;23.810;2024-03-02T11:01:55;94680.56;;;12.94;77.11
55466;BME280;41329;41.594;23.810;2024-03-02T11:04:21;94683.69;;;13.14;75.05
55466;BME280;41329;41.594;23.810;2024-03-02T11:06:50;94683.72;;;13.07;72.88
55466;BME280;41329;41.594;23.810;2024-03-02T11:09:20;94674.19;;;13.08;73.39
55466;BME280;41329;41.594;23.810;2024-03-02T11:12:00;94675.31;;;13.21;70.94
55466;BME280;41329;41.594;23.810;2024-03-02T11:14:30;94672.44;;;13.38;75.56
55466;BME280;41329;41.594;23.810;2024-03-02T11:16:56;94673.91;;;13.60;72.77
55466;BME280;41329;41.594;23.810;2024-03-02T11:19:23;94650.97;;;13.46;69.82
55466;BME280;41329;41.594;23.810;2024-03-02T11:21:49;94676.75;;;13.53;70.49
55466;BME280;41329;41.594;23.810;2024-03-02T11:26:47;94671.19;;;13.50;69.02
55466;BME280;41329;41.594;23.810;2024-03-02T11:32:06;94677.69;;;13.22;67.66
55466;BME280;41329;41.594;23.810;2024-03-02T11:34:41;94661.97;;;12.81;69.57
55466;BME280;41329;41.594;23.810;2024-03-02T11:37:10;94655.13;;;13.06;68.79
55466;BME280;41329;41.594;23.810;2024-03-02T11:39:36;94643.28;;;12.88;67.13
55466;BME280;41329;41.594;23.810;2024-03-02T11:42:05;94651.25;;;12.86;68.25
55466;BME280;41329;41.594;23.810;2024-03-02T11:44:33;94648.84;;;13.02;67.56
55466;BME280;41329;41.594;23.810;2024-03-02T11:47:02;94652.81;;;12.94;67.44
55466;BME280;41329;41.594;23.810;2024-03-02T11:49:50;94649.19;;;13.08;68.64
55466;BME280;41329;41.594;23.810;2024-03-02T11:52:22;94649.19;;;13.11;67.66
55466;BME280;41329;41.594;23.810;2024-03-02T11:54:48;94637.72;;;12.99;67.15
55466;BME280;41329;41.594;23.810;2024-03-02T11:57:18;94642.91;;;12.83;67.36
55466;BME280;41329;41.594;23.810;2024-03-02T11:59:45;94639.03;;;12.66;67.80
55466;BME280;41329;41.594;23.810;2024-03-02T12:02:20;94645.78;;;12.58;67.98
55466;BME280;41329;41.594;23.810;2024-03-02T12:04:47;94643.31;;;12.85;68.81
55466;BME280;41329;41.594;23.810;2024-03-02T12:07:18;94638.84;;;13.12;69.10
55466;BME280;41329;41.594;23.810;2024-03-02T12:09:45;94628.94;;;13.11;67.65
55466;BME280;41329;41.594;23.810;2024-03-02T12:12:11;94643.59;;;13.18;66.56
55466;BME280;41329;41.594;23.810;2024-03-02T12:14:37;94634.06;;;13.19;67.45
55466;BME280;41329;41.594;23.810;2024-03-02T12:17:04;94639.94;;;13.32;66.80
55466;BME280;41329;41.594;23.810;2024-03-02T12:19:32;94634.34;;;13.35;66.79
55466;BME280;41329;41.594;23.810;2024-03-02T12:21:59;94628.81;;;13.35;66.62
55466;BME280;41329;41.594;23.810;2024-03-02T12:24:27;94636.25;;;13.49;66.57
55466;BME280;41329;41.594;23.810;2024-03-02T12:26:53;94638.94;;;13.63;65.59
55466;BME280;41329;41.594;23.810;2024-03-02T12:29:20;94637.38;;;13.65;65.63
55466;BME280;41329;41.594;23.810;2024-03-02T12:31:48;94639.78;;;13.60;63.93
55466;BME280;41329;41.594;23.810;2024-03-02T12:34:15;94638.59;;;13.57;64.41
55466;BME280;41329;41.594;23.810;2024-03-02T12:36:40;94637.81;;;13.57;64.60
55466;BME280;41329;41.594;23.810;2024-03-02T12:39:07;94598.19;;;13.42;64.60
55466;BME280;41329;41.594;23.810;2024-03-02T12:41:36;94634.16;;;13.70;65.12
55466;BME280;41329;41.594;23.810;2024-03-02T12:44:02;94634.03;;;13.84;65.29
55466;BME280;41329;41.594;23.810;2024-03-02T12:46:27;94619.56;;;13.56;64.61
55466;BME280;41329;41.594;23.810;2024-03-02T12:48:53;94628.31;;;13.51;64.48
55466;BME280;41329;41.594;23.810;2024-03-02T12:51:19;94624.34;;;13.52;64.38
55466;BME280;41329;41.594;23.810;2024-03-02T12:53:44;94632.97;;;13.64;64.95
55466;BME280;41329;41.594;23.810;2024-03-02T12:56:10;94633.69;;;13.75;64.97
55466;BME280;41329;41.594;23.810;2024-03-02T12:58:39;94632.91;;;13.78;65.03